Share

Uniontown, KS (66779)

Atkinson Municipal (KPTS) Elev 951 ft | 37.45 °N, 94.73 °W | Change Station

Current weather conditions updated 21 minutes ago

Scattered Clouds
Scattered Clouds
76 °F
Feels Like 76 °F
N
13
Wind Variable Wind from SSW
Gusts 21 mph
Sunrise 6:37 AM
Sunset 8:00 PM
Moon Waning Gibbous

Today is forecast to be nearly the same temperature as yesterday. Showers late tonight.

Pressure 30.11 in
Visibility 10.0 miles
Clouds Scattered Clouds 5000 ft
Scattered Clouds 6000 ft
Dew Point 53 °F
Humidity 44%
Rainfall 0.00 in
Snow Depth Not available.
UV 8 out of 16
Pollen 10.50 out of 12
Air Quality Not available.
Flu Activity No Activity
METAR KPTS 201815Z AUTO 21011G18KT 10SM SCT050 SCT060 25/12 A3011 RMK AO2 T02460115

More Conditions Fewer Conditions

Pressure 30.11 in
Visibility 10.0 miles
Clouds Scattered Clouds 5000 ft
Scattered Clouds 6000 ft
Dew Point 53 °F
Humidity 44%
Rainfall 0.00 in
Snow Depth Not available.
UV 8 out of 16
Pollen 10.50 out of 12
Air Quality Not available.
Flu Activity No Activity
METAR KPTS 201815Z AUTO 21011G18KT 10SM SCT050 SCT060 25/12 A3011 RMK AO2 T02460115

More Conditions Fewer Conditions

10-Day Weather Forecast

Almanac

Astronomy

Apr. 20, 2014 Rise Set
Actual Time 6:37 AM CDT 8:00 PM CDT
Civil Twilight 6:10 AM CDT 8:27 PM CDT
Nautical Twilight 5:37 AM CDT 9:00 PM CDT
Astronomical Twilight 5:03 AM CDT 9:35 PM CDT
Moon 12:38 AM CDT 11:01 AM CDT
Length of Visible Light 14h 17m
Length of Day
13h 22m
Tomorrow will be 2m 15s longer.
Waning Gibbous, 67% of the Moon is Illuminated
Today
Waning Gibbous
Apr 22
Last Quarter
Apr 29
New
May 6
First Quarter
May 14
Full

Today's Extremes

State Highs State Lows

Community

  • Columbine
    Columbine
  • Easter Sunrise
    Easter Sunrise
  • Easter Eve - The Promise - Lake Palestine, TX
    Easter Eve - The Promise - Lake Palestine, TX
  • Happy Easter
    Happy Easter
  • EARLY FOGGY MORNING
    EARLY FOGGY MORNING

WunderPhotos

Upload Photos

1,703,302 photos uploaded!

WunderBlogs® & News

Nearby

Snow Depth

Station Depth Elevation
No new snow has been reported.

Coastal Water Temperatures

Place Temperature
No Stations Reporting

Earthquake Activity

City Distance Mag. Time & Date
No recent earthquake activity has been reported nearby.
Minimum magnitude displayed is 2.5.

Nearby Weather Stations

Station Location Temp. Heat Index Dew Point Humidity Wind Precip. Elev Updated Type
MesoWest SAVON , Savonburg, KS 77 °F 75 °F - - North  at  - 0.00 in / hr 1055 ft 11:40 AM CDT MADIS
MesoWest PARSON , Galesburg, KS 74 °F 72 °F - - North  at  - 0.00 in / hr 942 ft 12:10 PM CDT MADIS

Show More Stations Show Fewer Stations

What do you think?

We're not finished. Please let us know what you like, what you don't like, and what you are still missing.